Terminal Aerodrome Forecast
Issued by NWS

Home | Current Version | Previous Version | Text Only | Print | Product List | Glossary On
Versions: 1 2 3 4 5 6 7 8 9 10 11 12 13 14 15 16 17 18 19 20 21 22 23 24 25 26 27 28 29 30 31 32 33 34 35 36 37 38
000
FTUS42 KJAX 252300 AAA
TAFVQQ
TAF AMD
KVQQ 252355Z 2600/2624 36010KT 4SM RA BR OVC008
     FM260900 30013KT 4SM BR VCSH BKN003
     FM261500 32015G25KT P6SM BKN010
     FM261900 29012G20KT P6SM FEW010=

USA.gov is the U.S. government's official web portal to all federal, state and local government web resources and services.